Terminal Aerodrome Forecast
Issued by NWS Cleveland, OH

Home | Current Version | Previous Version | Graphics & Text | Print | Product List | Glossary On
Versions: 1 2 3 4 5 6 7 8 9 10 11 12 13 14 15 16 17
000
FTUS41 KCLE 291700
TAFMFD
TAF
KMFD 291729Z 2918/3018 22015G25KT P6SM VCSH BKN025 OVC040
      TEMPO 2920/2922 2SM -RASN OVC018
     FM292200 25017G27KT P6SM VCSH OVC009
      TEMPO 2922/2923 2SM -SN BR OVC002
     FM300300 27015G23KT P6SM OVC012
     FM300700 30012G22KT 4SM BR BKN008 OVC015
     FM301200 32014G22KT P6SM OVC022=

USA.gov is the U.S. government's official web portal to all federal, state and local government web resources and services.